Time;durP1;ratioP1;P1;durP2;ratioP2;P2;SDS_P1;SDS_P2;PMS_P1;PMS_P2;Temp;Humidity;BMP_temperature;BMP_pressure;BME280_temperature;BME280_humidity;BME280_pressure;Samples;Min_cycle;Max_cycle;Signal;HPM_P1;HPM_P2
2022/01/16 00:04:06;;;;;;;;;;;22.20;27.60;;;;;;5089318;28;19981;-62
2022/01/16 00:04:52;;;;;;;;;;;22.20;27.60;;;;;;5091189;28;20495;-62
2022/01/16 00:07:19;;;;;;;;;;;22.20;27.60;;;;;;5090532;28;19924;-62
2022/01/16 00:09:46;;;;;;;;;;;22.20;27.60;;;;;;5089009;28;20457;-62
2022/01/16 00:12:14;;;;;;;;;;;22.20;27.60;;;;;;5088832;28;19966;-62
2022/01/16 00:14:41;;;;;;;;;;;22.20;27.60;;;;;;5091311;28;20030;-62
2022/01/16 00:17:08;;;;;;;;;;;22.10;27.60;;;;;;5091059;28;19967;-63
2022/01/16 00:19:35;;;;;;;;;;;22.10;27.60;;;;;;5089317;28;20010;-62
2022/01/16 00:22:08;;;;;;;;;;;22.10;27.60;;;;;;5089028;28;20359;-62
2022/01/16 00:24:35;;;;;;;;;;;22.20;27.60;;;;;;5091207;28;19920;-62
2022/01/16 00:27:02;;;;;;;;;;;22.10;27.60;;;;;;5090906;28;20039;-63
2022/01/16 00:29:31;;;;;;;;;;;22.10;27.60;;;;;;5089079;28;19950;-62
2022/01/16 00:31:58;;;;;;;;;;;22.10;27.60;;;;;;5088555;28;19987;-62
2022/01/16 00:34:25;;;;;;;;;;;22.10;27.60;;;;;;5090461;28;19950;-62
2022/01/16 00:36:52;;;;;;;;;;;22.10;27.60;;;;;;5090423;28;20030;-62
2022/01/16 00:39:19;;;;;;;;;;;22.10;27.60;;;;;;5088471;28;19963;-62
2022/01/16 00:41:47;;;;;;;;;;;22.10;27.60;;;;;;5088572;28;19924;-62
2022/01/16 00:44:14;;;;;;;;;;;22.10;27.60;;;;;;5089939;28;20434;-62
2022/01/16 00:46:41;;;;;;;;;;;22.10;27.60;;;;;;5090927;28;20301;-62
2022/01/16 00:49:08;;;;;;;;;;;22.10;27.60;;;;;;5089160;28;19920;-63
2022/01/16 00:51:35;;;;;;;;;;;22.10;27.60;;;;;;5088013;28;20381;-62
2022/01/16 00:54:01;;;;;;;;;;;22.20;27.60;;;;;;5089525;28;20088;-62
2022/01/16 00:56:28;;;;;;;;;;;22.10;27.60;;;;;;5072839;28;20305;-62
2022/01/16 00:58:55;;;;;;;;;;;22.10;27.60;;;;;;5088657;28;20010;-63
2022/01/16 01:01:22;;;;;;;;;;;22.10;27.60;;;;;;5088162;28;19963;-64
2022/01/16 01:03:49;;;;;;;;;;;22.10;27.60;;;;;;5089317;28;20014;-62
2022/01/16 01:06:16;;;;;;;;;;;22.10;27.60;;;;;;5090240;28;19927;-62
2022/01/16 01:08:43;;;;;;;;;;;22.10;27.50;;;;;;5088239;28;19919;-62
2022/01/16 01:11:15;;;;;;;;;;;22.10;27.50;;;;;;5088244;28;19959;-62
2022/01/16 01:14:08;;;;;;;;;;;22.10;27.50;;;;;;5089165;28;20369;-61
2022/01/16 01:16:48;;;;;;;;;;;22.10;27.50;;;;;;5089745;28;20365;-62
2022/01/16 01:19:15;;;;;;;;;;;22.10;27.50;;;;;;5088381;28;19920;-62
2022/01/16 01:21:42;;;;;;;;;;;22.00;27.50;;;;;;5088108;28;20477;-62
2022/01/16 01:24:09;;;;;;;;;;;22.00;27.50;;;;;;5089495;28;19970;-62
2022/01/16 01:26:45;;;;;;;;;;;22.00;27.50;;;;;;5090585;28;19920;-62
2022/01/16 01:29:17;;;;;;;;;;;22.00;27.50;;;;;;5088131;28;19959;-62
2022/01/16 01:31:44;;;;;;;;;;;22.00;27.60;;;;;;5087634;28;19959;-62
2022/01/16 01:34:11;;;;;;;;;;;22.00;27.60;;;;;;5089300;28;19963;-62
2022/01/16 01:36:38;;;;;;;;;;;22.00;27.60;;;;;;5090071;28;19962;-62
2022/01/16 01:39:05;;;;;;;;;;;22.00;27.60;;;;;;5103423;28;19920;-62
2022/01/16 01:41:32;;;;;;;;;;;22.00;27.50;;;;;;5088014;28;20007;-62
2022/01/16 01:52:19;;;;;;;;;;;22.00;27.60;;;;;;5087066;28;19932;-62
2022/01/16 01:54:47;;;;;;;;;;;22.00;27.60;;;;;;5089909;28;20011;-62
2022/01/16 01:57:14;;;;;;;;;;;22.00;27.60;;;;;;5088732;28;20022;-62
2022/01/16 01:59:41;;;;;;;;;;;21.90;27.60;;;;;;5087616;28;19971;-62
2022/01/16 02:02:08;;;;;;;;;;;21.90;27.60;;;;;;5087344;28;19968;-62
2022/01/16 02:04:37;;;;;;;;;;;21.90;27.60;;;;;;5105533;28;19920;-62
2022/01/16 02:07:04;;;;;;;;;;;21.90;27.60;;;;;;5093653;28;20026;-62
2022/01/16 02:09:31;;;;;;;;;;;21.90;27.60;;;;;;5091773;28;20349;-62
2022/01/16 02:11:58;;;;;;;;;;;21.90;27.60;;;;;;5091283;28;20197;-62
2022/01/16 02:14:31;;;;;;;;;;;21.90;27.60;;;;;;5093845;28;20007;-62
2022/01/16 02:28:44;;;;;;;;;;;21.90;27.60;;;;;;5092279;28;19924;-62
2022/01/16 02:31:17;;;;;;;;;;;21.90;27.60;;;;;;5091045;28;19948;-61
2022/01/16 02:37:10;;;;;;;;;;;21.90;27.60;;;;;;5093463;28;20468;-62
2022/01/16 02:39:40;;;;;;;;;;;21.90;27.50;;;;;;5091247;28;19981;-62
2022/01/16 02:42:10;;;;;;;;;;;21.90;27.50;;;;;;5090789;28;20019;-62
2022/01/16 02:44:47;;;;;;;;;;;21.90;27.50;;;;;;5093261;28;19986;-62
2022/01/16 02:47:18;;;;;;;;;;;21.90;27.50;;;;;;5092091;28;19920;-61
2022/01/16 02:49:48;;;;;;;;;;;21.90;27.50;;;;;;5091177;28;19947;-62
2022/01/16 02:52:16;;;;;;;;;;;21.90;27.50;;;;;;5090228;28;20131;-62
2022/01/16 02:54:44;;;;;;;;;;;21.90;27.50;;;;;;5093011;28;19967;-62
2022/01/16 02:57:13;;;;;;;;;;;21.90;27.50;;;;;;5092381;28;19955;-62
2022/01/16 02:59:44;;;;;;;;;;;21.80;27.40;;;;;;5090986;28;20335;-62
2022/01/16 03:02:11;;;;;;;;;;;21.90;27.50;;;;;;5090361;28;19924;-62
2022/01/16 03:04:38;;;;;;;;;;;21.90;27.50;;;;;;5092591;28;19954;-62
2022/01/16 03:07:05;;;;;;;;;;;21.90;27.50;;;;;;5092036;28;20157;-61
2022/01/16 03:10:05;;;;;;;;;;;21.90;27.50;;;;;;5092677;28;19919;-62
2022/01/16 03:12:19;;;;;;;;;;;21.80;27.50;;;;;;5091854;28;20333;-62
2022/01/16 03:14:46;;;;;;;;;;;21.80;27.40;;;;;;5092541;28;19967;-62
2022/01/16 03:17:23;;;;;;;;;;;21.80;27.50;;;;;;5090761;28;19920;-62
2022/01/16 03:22:37;;;;;;;;;;;21.80;27.50;;;;;;5090182;28;19959;-62
2022/01/16 03:25:04;;;;;;;;;;;21.80;27.50;;;;;;5092538;28;19970;-62
2022/01/16 03:27:31;;;;;;;;;;;21.80;27.50;;;;;;5091267;28;19962;-62
2022/01/16 03:30:00;;;;;;;;;;;21.80;27.50;;;;;;5090053;28;20357;-62
2022/01/16 03:32:27;;;;;;;;;;;21.80;27.50;;;;;;5090088;28;19924;-62
2022/01/16 03:34:54;;;;;;;;;;;21.80;27.50;;;;;;5091930;28;19920;-62
2022/01/16 03:37:21;;;;;;;;;;;21.80;27.50;;;;;;5091979;28;20267;-62
2022/01/16 03:39:48;;;;;;;;;;;21.80;27.50;;;;;;5089636;28;19965;-62
2022/01/16 03:42:22;;;;;;;;;;;21.80;27.50;;;;;;5089865;28;20007;-62
2022/01/16 03:44:49;;;;;;;;;;;21.80;27.50;;;;;;5092004;28;20361;-62
2022/01/16 03:47:17;;;;;;;;;;;21.80;27.50;;;;;;5091473;28;20280;-62
2022/01/16 03:49:44;;;;;;;;;;;21.80;27.50;;;;;;5089765;28;19920;-62
2022/01/16 03:52:11;;;;;;;;;;;21.80;27.50;;;;;;5088874;28;19971;-62
2022/01/16 03:54:38;;;;;;;;;;;21.80;27.50;;;;;;5091592;28;19920;-62
2022/01/16 03:57:05;;;;;;;;;;;21.80;27.50;;;;;;5091064;28;20377;-62
2022/01/16 03:59:33;;;;;;;;;;;21.70;27.50;;;;;;5089091;28;20365;-62
2022/01/16 04:02:00;;;;;;;;;;;21.70;27.50;;;;;;5089431;28;20456;-62
2022/01/16 04:04:27;;;;;;;;;;;21.70;27.50;;;;;;5106625;28;19963;-63
2022/01/16 04:06:54;;;;;;;;;;;21.70;27.50;;;;;;5091360;28;19920;-62
2022/01/16 04:09:21;;;;;;;;;;;21.70;27.50;;;;;;5089149;28;19967;-63
2022/01/16 04:11:53;;;;;;;;;;;21.70;27.50;;;;;;5088986;28;19970;-62
2022/01/16 04:15:31;;;;;;;;;;;21.70;27.50;;;;;;5090713;28;20014;-62
2022/01/16 04:17:07;;;;;;;;;;;21.70;27.50;;;;;;5091043;28;20010;-62
2022/01/16 04:19:35;;;;;;;;;;;21.70;27.50;;;;;;5089387;28;20022;-63
2022/01/16 04:22:02;;;;;;;;;;;21.70;27.50;;;;;;5088622;28;19989;-63
2022/01/16 04:24:29;;;;;;;;;;;21.70;27.50;;;;;;5090720;28;20175;-63
2022/01/16 04:26:56;;;;;;;;;;;21.70;27.50;;;;;;5091071;28;20014;-62
2022/01/16 04:29:22;;;;;;;;;;;21.80;27.50;;;;;;5088475;28;19920;-63
2022/01/16 04:31:50;;;;;;;;;;;21.70;27.40;;;;;;5088725;28;20513;-63
2022/01/16 04:34:17;;;;;;;;;;;21.80;27.40;;;;;;5090434;28;19990;-62
2022/01/16 04:36:44;;;;;;;;;;;21.70;27.40;;;;;;5091152;28;19924;-63
2022/01/16 04:39:17;;;;;;;;;;;21.70;27.40;;;;;;5070454;28;20449;-63
2022/01/16 04:44:31;;;;;;;;;;;21.70;27.40;;;;;;5090694;28;20259;-63
2022/01/16 04:46:58;;;;;;;;;;;21.80;27.40;;;;;;5090143;28;19924;-63
2022/01/16 04:49:25;;;;;;;;;;;21.80;27.40;;;;;;5088336;28;19920;-62
2022/01/16 04:51:52;;;;;;;;;;;21.70;27.40;;;;;;5088381;28;20007;-63
2022/01/16 04:54:19;;;;;;;;;;;21.70;27.40;;;;;;5089908;28;19986;-63
2022/01/16 04:56:46;;;;;;;;;;;21.70;27.40;;;;;;5090827;28;20072;-62
2022/01/16 04:59:13;;;;;;;;;;;21.70;27.40;;;;;;5088068;28;19967;-63
2022/01/16 05:01:40;;;;;;;;;;;21.70;27.40;;;;;;5088552;28;19959;-63
2022/01/16 05:04:07;;;;;;;;;;;21.70;27.40;;;;;;5089683;28;20369;-62
2022/01/16 05:06:34;;;;;;;;;;;21.60;27.40;;;;;;5090606;28;20023;-63
2022/01/16 05:09:02;;;;;;;;;;;21.70;27.40;;;;;;5088257;28;19920;-63
2022/01/16 05:11:29;;;;;;;;;;;21.60;27.40;;;;;;5087936;28;20014;-63
2022/01/16 05:16:43;;;;;;;;;;;21.70;27.40;;;;;;5103189;28;19970;-63
2022/01/16 05:19:11;;;;;;;;;;;21.60;27.40;;;;;;5088263;28;20434;-62
2022/01/16 05:21:39;;;;;;;;;;;21.60;27.40;;;;;;5088040;28;19959;-63
2022/01/16 05:24:11;;;;;;;;;;;21.60;27.40;;;;;;5089561;28;19920;-62
2022/01/16 05:26:39;;;;;;;;;;;21.60;27.40;;;;;;5090138;28;20027;-62
2022/01/16 05:29:06;;;;;;;;;;;21.60;27.40;;;;;;5088249;28;20335;-63
2022/01/16 05:31:34;;;;;;;;;;;21.60;27.40;;;;;;5087676;28;20010;-65
2022/01/16 05:34:01;;;;;;;;;;;21.60;27.40;;;;;;5089064;28;19920;-66
2022/01/16 05:36:28;;;;;;;;;;;21.60;27.40;;;;;;5089687;28;19967;-63
2022/01/16 05:38:55;;;;;;;;;;;21.60;27.40;;;;;;5088075;28;20427;-63
2022/01/16 05:41:22;;;;;;;;;;;21.60;27.40;;;;;;5087315;28;20114;-62
2022/01/16 05:43:49;;;;;;;;;;;21.60;27.40;;;;;;5088904;28;20014;-63
2022/01/16 05:46:17;;;;;;;;;;;21.60;27.40;;;;;;5089707;28;20038;-62
2022/01/16 05:48:44;;;;;;;;;;;21.60;27.50;;;;;;5088050;28;19924;-62
2022/01/16 05:51:11;;;;;;;;;;;21.60;27.50;;;;;;5087696;28;20045;-62
2022/01/16 05:53:38;;;;;;;;;;;21.60;27.50;;;;;;5088377;28;19974;-63
2022/01/16 05:56:05;;;;;;;;;;;21.60;27.50;;;;;;5089834;28;20014;-62
2022/01/16 05:58:33;;;;;;;;;;;21.60;27.40;;;;;;5088702;28;19920;-62
2022/01/16 06:01:00;;;;;;;;;;;21.60;27.50;;;;;;5086878;28;19974;-62
2022/01/16 06:03:27;;;;;;;;;;;21.60;27.50;;;;;;5088352;28;20076;-62
2022/01/16 06:05:54;;;;;;;;;;;21.60;27.50;;;;;;5071941;28;19920;-62
2022/01/16 06:08:21;;;;;;;;;;;21.60;27.50;;;;;;5088427;28;20125;-63
2022/01/16 06:10:48;;;;;;;;;;;21.50;27.40;;;;;;5087464;28;19979;-62
2022/01/16 06:13:15;;;;;;;;;;;21.50;27.30;;;;;;5070180;28;20446;-62
2022/01/16 06:19:04;;;;;;;;;;;21.50;27.30;;;;;;5087844;28;19954;-61
2022/01/16 06:21:31;;;;;;;;;;;21.50;27.30;;;;;;5087831;28;19999;-61
2022/01/16 06:23:58;;;;;;;;;;;21.50;27.20;;;;;;5088991;28;19920;-61
2022/01/16 06:26:24;;;;;;;;;;;21.50;27.10;;;;;;5089886;28;20014;-61
2022/01/16 06:28:51;;;;;;;;;;;21.50;27.10;;;;;;5087435;28;19955;-61
2022/01/16 06:31:18;;;;;;;;;;;21.60;27.10;;;;;;5087397;28;20007;-61
2022/01/16 06:33:45;;;;;;;;;;;21.60;27.00;;;;;;5088305;28;19924;-62
2022/01/16 06:36:13;;;;;;;;;;;21.60;26.90;;;;;;5089676;28;20014;-61
2022/01/16 06:38:39;;;;;;;;;;;21.70;26.90;;;;;;5087979;28;19920;-62
2022/01/16 06:44:07;;;;;;;;;;;21.70;26.80;;;;;;5088606;28;19974;-62
2022/01/16 06:46:34;;;;;;;;;;;21.80;26.80;;;;;;5089469;28;20099;-62
2022/01/16 06:49:01;;;;;;;;;;;21.80;26.70;;;;;;5087210;28;20432;-61
2022/01/16 06:51:28;;;;;;;;;;;21.90;26.70;;;;;;5088913;28;20355;-61
2022/01/16 06:53:56;;;;;;;;;;;22.00;26.70;;;;;;5091821;28;20408;-62
2022/01/16 06:56:24;;;;;;;;;;;22.00;26.60;;;;;;5092931;28;19959;-62
2022/01/16 06:58:51;;;;;;;;;;;22.10;26.60;;;;;;5090932;28;20357;-62
2022/01/16 07:01:38;;;;;;;;;;;22.10;26.50;;;;;;5089938;28;19920;-62
2022/01/16 07:04:05;;;;;;;;;;;22.20;26.50;;;;;;5092147;28;20026;-61
2022/01/16 07:06:32;;;;;;;;;;;22.30;26.40;;;;;;5093040;28;20280;-61
2022/01/16 07:08:59;;;;;;;;;;;22.30;26.30;;;;;;5091200;28;19920;-63
2022/01/16 07:11:26;;;;;;;;;;;22.30;26.20;;;;;;5090035;28;19946;-62
2022/01/16 07:13:53;;;;;;;;;;;22.40;26.20;;;;;;5091719;28;20007;-63
2022/01/16 07:16:21;;;;;;;;;;;22.50;26.10;;;;;;5092586;28;19963;-62
2022/01/16 07:18:48;;;;;;;;;;;22.50;26.00;;;;;;5090829;28;19951;-62
2022/01/16 07:21:15;;;;;;;;;;;22.60;26.00;;;;;;5090194;28;19975;-62
2022/01/16 07:23:43;;;;;;;;;;;22.70;26.00;;;;;;5091130;28;20090;-62
2022/01/16 07:26:11;;;;;;;;;;;22.70;25.90;;;;;;5092583;28;19966;-62
2022/01/16 07:28:38;;;;;;;;;;;22.80;25.90;;;;;;5090737;28;20022;-62
2022/01/16 07:31:05;;;;;;;;;;;22.80;25.80;;;;;;5105839;28;19982;-62
2022/01/16 07:33:32;;;;;;;;;;;22.80;25.80;;;;;;5090923;28;19926;-62
2022/01/16 07:35:59;;;;;;;;;;;22.90;25.80;;;;;;5091852;28;20034;-63
2022/01/16 07:38:26;;;;;;;;;;;22.90;25.70;;;;;;5090290;28;19924;-62
2022/01/16 07:40:53;;;;;;;;;;;23.00;25.70;;;;;;5090149;28;20014;-62
2022/01/16 07:43:20;;;;;;;;;;;23.00;25.70;;;;;;5090267;28;19963;-62
2022/01/16 07:45:47;;;;;;;;;;;23.10;25.70;;;;;;5091821;28;20288;-62
2022/01/16 07:48:14;;;;;;;;;;;23.10;25.60;;;;;;5090770;28;20092;-62
2022/01/16 07:50:41;;;;;;;;;;;23.20;25.60;;;;;;5089718;28;19920;-62
2022/01/16 07:53:08;;;;;;;;;;;23.20;25.50;;;;;;5090238;28;20435;-62
2022/01/16 07:55:35;;;;;;;;;;;23.20;25.50;;;;;;5091964;28;20015;-62
2022/01/16 07:58:02;;;;;;;;;;;23.30;25.40;;;;;;5090854;28;19920;-62
2022/01/16 08:00:30;;;;;;;;;;;23.30;25.40;;;;;;5089106;28;19965;-62
2022/01/16 08:02:58;;;;;;;;;;;23.40;25.40;;;;;;5089068;28;19963;-62
2022/01/16 08:05:26;;;;;;;;;;;23.40;25.30;;;;;;5091711;28;20022;-62
2022/01/16 08:07:53;;;;;;;;;;;23.50;25.30;;;;;;5090448;28;19919;-62
2022/01/16 08:10:20;;;;;;;;;;;23.50;25.30;;;;;;5089383;28;19959;-62
2022/01/16 08:12:47;;;;;;;;;;;23.60;25.30;;;;;;5089323;28;20019;-62
2022/01/16 08:15:13;;;;;;;;;;;23.60;25.20;;;;;;5091641;28;19920;-62
2022/01/16 08:17:40;;;;;;;;;;;23.60;25.10;;;;;;5090285;28;19978;-61
2022/01/16 08:20:08;;;;;;;;;;;23.70;25.20;;;;;;5089494;28;19920;-62
2022/01/16 08:22:37;;;;;;;;;;;23.70;25.10;;;;;;5088976;28;19952;-62
2022/01/16 08:25:05;;;;;;;;;;;23.80;25.10;;;;;;5091064;28;19955;-62
2022/01/16 08:27:32;;;;;;;;;;;23.80;25.10;;;;;;5090783;28;19971;-62
2022/01/16 08:30:04;;;;;;;;;;;23.80;25.00;;;;;;5088631;28;19926;-62
2022/01/16 08:32:31;;;;;;;;;;;23.80;25.00;;;;;;5088732;28;19966;-62
2022/01/16 08:34:58;;;;;;;;;;;23.90;25.00;;;;;;5091392;28;19951;-62
2022/01/16 08:37:24;;;;;;;;;;;23.90;25.00;;;;;;5090355;28;19920;-62
2022/01/16 08:43:13;;;;;;;;;;;23.90;24.90;;;;;;5089256;28;20294;-62
2022/01/16 08:45:41;;;;;;;;;;;23.80;24.80;;;;;;5091060;28;20010;-62
2022/01/16 08:48:08;;;;;;;;;;;23.80;24.90;;;;;;5089767;28;19920;-62
2022/01/16 08:50:36;;;;;;;;;;;23.80;24.90;;;;;;5088558;28;20119;-63
2022/01/16 08:53:03;;;;;;;;;;;23.80;24.90;;;;;;5089380;28;19966;-62
2022/01/16 08:55:31;;;;;;;;;;;23.80;24.90;;;;;;5090352;28;20462;-62
2022/01/16 08:57:59;;;;;;;;;;;23.80;24.90;;;;;;5089789;28;19920;-62
2022/01/16 09:00:26;;;;;;;;;;;23.70;24.90;;;;;;5088464;28;19924;-62
2022/01/16 09:02:53;;;;;;;;;;;23.70;25.00;;;;;;5070852;28;19920;-62
2022/01/16 09:05:20;;;;;;;;;;;23.70;25.00;;;;;;5090579;28;19928;-62
2022/01/16 09:07:47;;;;;;;;;;;23.70;25.00;;;;;;5104719;28;20368;-62
2022/01/16 09:10:14;;;;;;;;;;;23.70;25.00;;;;;;5088124;28;19920;-62
2022/01/16 09:12:41;;;;;;;;;;;23.60;24.90;;;;;;5088398;28;19977;-62
2022/01/16 09:15:09;;;;;;;;;;;23.60;25.00;;;;;;5089572;28;19919;-62
2022/01/16 09:17:36;;;;;;;;;;;23.60;25.00;;;;;;5089813;28;19931;-62
2022/01/16 09:20:05;;;;;;;;;;;23.60;25.00;;;;;;5087522;28;19920;-62
2022/01/16 09:22:32;;;;;;;;;;;23.60;25.00;;;;;;5088319;28;19966;-62
2022/01/16 09:24:59;;;;;;;;;;;23.60;25.00;;;;;;5090089;28;20019;-62
2022/01/16 09:27:26;;;;;;;;;;;23.60;25.00;;;;;;5089866;28;19920;-62
2022/01/16 09:29:53;;;;;;;;;;;23.60;25.00;;;;;;5087604;28;19923;-63
2022/01/16 09:32:20;;;;;;;;;;;23.60;25.10;;;;;;5087788;28;20335;-62
2022/01/16 09:34:47;;;;;;;;;;;23.60;25.10;;;;;;5089593;28;19982;-62
2022/01/16 09:37:14;;;;;;;;;;;23.60;25.10;;;;;;5089978;28;20085;-63
2022/01/16 09:39:41;;;;;;;;;;;23.60;25.20;;;;;;5087843;28;20411;-62
2022/01/16 09:42:09;;;;;;;;;;;23.60;25.20;;;;;;5087358;28;20202;-62
2022/01/16 09:44:39;;;;;;;;;;;23.60;25.20;;;;;;5089894;28;20325;-63
2022/01/16 09:47:06;;;;;;;;;;;23.50;25.20;;;;;;5089563;28;19964;-62
2022/01/16 09:49:34;;;;;;;;;;;23.50;25.30;;;;;;5088012;28;20281;-62
2022/01/16 09:52:01;;;;;;;;;;;23.50;25.30;;;;;;5087759;28;20003;-62
2022/01/16 09:54:28;;;;;;;;;;;23.50;25.30;;;;;;5089560;28;20115;-62
2022/01/16 09:56:55;;;;;;;;;;;23.50;25.30;;;;;;5089941;28;19966;-62
2022/01/16 09:59:22;;;;;;;;;;;23.50;25.30;;;;;;5087528;28;19923;-62
2022/01/16 10:01:50;;;;;;;;;;;23.50;25.30;;;;;;5087688;28;19920;-62
2022/01/16 10:04:37;;;;;;;;;;;23.60;25.30;;;;;;5088974;28;19943;-62
2022/01/16 10:07:07;;;;;;;;;;;23.60;25.30;;;;;;5089675;28;19946;-62
2022/01/16 10:09:35;;;;;;;;;;;23.60;25.30;;;;;;5087395;28;20190;-62
2022/01/16 10:12:19;;;;;;;;;;;23.60;25.30;;;;;;5087748;28;19919;-62
2022/01/16 10:14:49;;;;;;;;;;;23.60;25.30;;;;;;5089667;28;20342;-62
2022/01/16 10:17:20;;;;;;;;;;;23.60;25.30;;;;;;5089096;28;19974;-62
2022/01/16 10:19:58;;;;;;;;;;;23.60;25.30;;;;;;5087500;28;20327;-62
2022/01/16 10:22:36;;;;;;;;;;;23.60;25.70;;;;;;5087920;28;19927;-63
2022/01/16 10:25:04;;;;;;;;;;;23.70;25.40;;;;;;5089816;28;19942;-62
2022/01/16 10:27:33;;;;;;;;;;;23.60;25.30;;;;;;5092783;28;20019;-62
2022/01/16 10:30:03;;;;;;;;;;;23.60;25.30;;;;;;5093269;28;19920;-63
2022/01/16 10:32:33;;;;;;;;;;;23.60;25.30;;;;;;5093116;28;20014;-63
2022/01/16 10:35:10;;;;;;;;;;;23.70;25.40;;;;;;5093406;28;19943;-62
2022/01/16 10:37:37;;;;;;;;;;;23.60;25.30;;;;;;5092957;28;19993;-62
2022/01/16 10:40:09;;;;;;;;;;;23.70;25.40;;;;;;5090753;28;19963;-62
2022/01/16 10:42:39;;;;;;;;;;;23.70;25.40;;;;;;5091010;28;20018;-62
2022/01/16 10:45:07;;;;;;;;;;;23.70;25.40;;;;;;5093298;28;20377;-62
2022/01/16 10:54:31;;;;;;;;;;;23.70;25.40;;;;;;5092132;28;19965;-62
2022/01/16 10:57:16;;;;;;;;;;;23.70;25.40;;;;;;5092650;28;20010;-62
2022/01/16 10:59:43;;;;;;;;;;;23.70;25.40;;;;;;5092965;28;19967;-62
2022/01/16 11:02:12;;;;;;;;;;;23.70;25.40;;;;;;5092389;28;19920;-62
2022/01/16 11:04:40;;;;;;;;;;;23.70;25.40;;;;;;5074651;28;19920;-62
2022/01/16 11:07:07;;;;;;;;;;;23.70;25.40;;;;;;5092785;28;20006;-61
2022/01/16 11:09:34;;;;;;;;;;;23.70;25.40;;;;;;5093113;28;20013;-62
2022/01/16 11:12:01;;;;;;;;;;;23.70;25.40;;;;;;5074563;28;19920;-62
2022/01/16 11:14:29;;;;;;;;;;;23.80;25.40;;;;;;5092426;28;19955;-63
2022/01/16 11:16:56;;;;;;;;;;;23.80;25.70;;;;;;5092559;28;19967;-62
2022/01/16 11:19:25;;;;;;;;;;;23.80;25.50;;;;;;5090182;28;20388;-62
2022/01/16 11:21:56;;;;;;;;;;;23.80;25.50;;;;;;5090237;28;19928;-63
2022/01/16 11:24:46;;;;;;;;;;;23.80;25.50;;;;;;5091824;28;20012;-62
2022/01/16 11:27:10;;;;;;;;;;;23.80;25.50;;;;;;5091845;28;19927;-62
2022/01/16 11:29:37;;;;;;;;;;;23.80;25.60;;;;;;5090266;28;19974;-62
2022/01/16 11:32:04;;;;;;;;;;;23.80;25.50;;;;;;5089918;28;20022;-62
2022/01/16 11:34:31;;;;;;;;;;;23.80;25.50;;;;;;5074207;28;19998;-62
2022/01/16 11:36:58;;;;;;;;;;;23.80;25.50;;;;;;5091736;28;19975;-62
2022/01/16 11:39:33;;;;;;;;;;;23.80;25.50;;;;;;5089574;28;19920;-62
2022/01/16 11:42:00;;;;;;;;;;;23.80;25.50;;;;;;5089461;28;20183;-62
2022/01/16 11:44:28;;;;;;;;;;;23.90;25.50;;;;;;5091666;28;20424;-62
2022/01/16 11:46:56;;;;;;;;;;;23.90;25.50;;;;;;5091966;28;19959;-62
2022/01/16 11:49:37;;;;;;;;;;;23.90;25.50;;;;;;5089862;28;20011;-62
2022/01/16 11:52:11;;;;;;;;;;;23.90;25.50;;;;;;5089233;28;19939;-62
2022/01/16 11:54:40;;;;;;;;;;;23.90;25.40;;;;;;5073788;28;20039;-63
2022/01/16 11:57:22;;;;;;;;;;;23.90;25.40;;;;;;5091518;28;20051;-62
2022/01/16 11:59:50;;;;;;;;;;;23.90;25.40;;;;;;5089507;28;20335;-62
2022/01/16 12:02:19;;;;;;;;;;;23.90;25.40;;;;;;5089327;28;19920;-62
2022/01/16 12:04:47;;;;;;;;;;;23.90;25.40;;;;;;5091437;28;19975;-62
2022/01/16 12:07:34;;;;;;;;;;;23.90;25.40;;;;;;5090447;28;20361;-62
2022/01/16 12:10:03;;;;;;;;;;;23.90;25.40;;;;;;5074533;28;19923;-63
2022/01/16 12:12:34;;;;;;;;;;;23.90;25.40;;;;;;5089290;28;19971;-63
2022/01/16 12:15:04;;;;;;;;;;;24.00;25.40;;;;;;5091494;28;19962;-62
2022/01/16 12:17:46;;;;;;;;;;;24.00;25.40;;;;;;5090743;28;19920;-62
2022/01/16 12:20:22;;;;;;;;;;;24.00;25.40;;;;;;5089255;28;19920;-62
2022/01/16 12:22:53;;;;;;;;;;;24.00;25.40;;;;;;5089481;28;19967;-62
2022/01/16 12:25:43;;;;;;;;;;;24.00;25.40;;;;;;5091470;28;19919;-64
2022/01/16 12:28:16;;;;;;;;;;;24.00;25.40;;;;;;5090183;28;19970;-62
2022/01/16 12:30:50;;;;;;;;;;;24.00;25.40;;;;;;5088181;28;19920;-63
2022/01/16 12:33:22;;;;;;;;;;;24.00;25.40;;;;;;5089392;28;19923;-62
2022/01/16 12:35:58;;;;;;;;;;;24.00;25.40;;;;;;5106530;28;19970;-62
2022/01/16 12:38:26;;;;;;;;;;;24.00;25.40;;;;;;5090157;28;19959;-62
2022/01/16 12:41:06;;;;;;;;;;;24.00;25.40;;;;;;5088678;28;20019;-62
2022/01/16 12:43:43;;;;;;;;;;;24.00;25.30;;;;;;5089713;28;19920;-62
2022/01/16 12:46:12;;;;;;;;;;;24.00;25.30;;;;;;5090867;28;20360;-62
2022/01/16 12:48:41;;;;;;;;;;;24.00;25.30;;;;;;5089230;28;19962;-62
2022/01/16 12:51:08;;;;;;;;;;;24.00;25.30;;;;;;5088979;28;19989;-62
2022/01/16 12:57:06;;;;;;;;;;;24.00;25.30;;;;;;5090394;28;19970;-62
2022/01/16 12:59:42;;;;;;;;;;;24.00;25.30;;;;;;5103153;28;20020;-62
2022/01/16 13:02:10;;;;;;;;;;;24.00;25.40;;;;;;5088109;28;19971;-62
2022/01/16 13:04:44;;;;;;;;;;;24.00;25.40;;;;;;5090486;28;19920;-62
2022/01/16 13:07:32;;;;;;;;;;;24.00;25.50;;;;;;5089829;28;19920;-62
2022/01/16 13:09:59;;;;;;;;;;;24.00;25.50;;;;;;5103987;28;20079;-62
2022/01/16 13:12:27;;;;;;;;;;;24.00;25.50;;;;;;5088218;28;19973;-62
2022/01/16 13:14:57;;;;;;;;;;;24.00;25.50;;;;;;5090310;28;19920;-62
2022/01/16 13:17:24;;;;;;;;;;;24.00;25.50;;;;;;5089036;28;19967;-62
2022/01/16 13:19:52;;;;;;;;;;;24.00;25.50;;;;;;5087796;28;19946;-62
2022/01/16 13:22:23;;;;;;;;;;;24.00;25.50;;;;;;5087648;28;20261;-62
2022/01/16 13:25:03;;;;;;;;;;;24.00;25.50;;;;;;5090372;28;19920;-63
2022/01/16 13:27:31;;;;;;;;;;;24.00;25.50;;;;;;5089981;28;19920;-62
2022/01/16 13:30:00;;;;;;;;;;;24.00;25.40;;;;;;5087867;28;19950;-63
2022/01/16 13:32:35;;;;;;;;;;;24.10;25.40;;;;;;5087828;28;20269;-62
2022/01/16 13:35:18;;;;;;;;;;;24.00;25.30;;;;;;5090054;28;20023;-62
2022/01/16 13:37:46;;;;;;;;;;;24.10;25.40;;;;;;5089481;28;20026;-62
2022/01/16 13:40:14;;;;;;;;;;;24.10;25.40;;;;;;5088203;28;20243;-62
2022/01/16 13:43:05;;;;;;;;;;;24.10;25.40;;;;;;5087920;28;20332;-62
2022/01/16 13:45:39;;;;;;;;;;;24.00;25.30;;;;;;5074814;28;19920;-62
2022/01/16 13:48:11;;;;;;;;;;;24.00;25.30;;;;;;5089176;28;20363;-62
2022/01/16 13:50:40;;;;;;;;;;;24.00;25.30;;;;;;5087680;28;19920;-62
2022/01/16 13:53:09;;;;;;;;;;;24.00;25.30;;;;;;5088308;28;20388;-62
2022/01/16 13:55:54;;;;;;;;;;;24.00;25.30;;;;;;5089660;28;20373;-62
2022/01/16 13:58:23;;;;;;;;;;;24.00;25.30;;;;;;5088773;28;20115;-62
2022/01/16 14:00:50;;;;;;;;;;;24.00;25.30;;;;;;5088367;28;20156;-62
2022/01/16 14:03:19;;;;;;;;;;;24.00;25.30;;;;;;5074683;28;19920;-62
2022/01/16 14:05:51;;;;;;;;;;;24.00;25.30;;;;;;5094037;28;19924;-62
2022/01/16 14:08:20;;;;;;;;;;;24.00;25.30;;;;;;5092502;28;19920;-61
2022/01/16 14:10:47;;;;;;;;;;;24.00;25.30;;;;;;5091439;28;20023;-62
2022/01/16 14:13:14;;;;;;;;;;;24.00;25.30;;;;;;5092282;28;20112;-62
2022/01/16 14:19:12;;;;;;;;;;;24.00;25.30;;;;;;5091554;28;20175;-63
2022/01/16 14:21:59;;;;;;;;;;;23.90;25.30;;;;;;5073935;28;20013;-62
2022/01/16 14:24:27;;;;;;;;;;;23.90;25.30;;;;;;5092835;28;20034;-62
2022/01/16 14:26:56;;;;;;;;;;;23.90;25.30;;;;;;5093334;28;19920;-62
2022/01/16 14:29:23;;;;;;;;;;;23.90;25.30;;;;;;5090959;28;19920;-63
2022/01/16 14:31:52;;;;;;;;;;;23.90;25.30;;;;;;5091363;28;20249;-62
2022/01/16 14:34:19;;;;;;;;;;;23.90;25.30;;;;;;5093042;28;20062;-62
2022/01/16 14:36:47;;;;;;;;;;;23.90;25.30;;;;;;5093519;28;20014;-62
2022/01/16 14:39:14;;;;;;;;;;;23.90;25.30;;;;;;5091409;28;20356;-62
2022/01/16 14:41:46;;;;;;;;;;;23.90;25.40;;;;;;5090980;28;19967;-62
2022/01/16 14:44:14;;;;;;;;;;;23.90;25.40;;;;;;5092646;28;19966;-63
2022/01/16 14:46:41;;;;;;;;;;;23.80;25.40;;;;;;5093106;28;19920;-63
2022/01/16 14:49:08;;;;;;;;;;;23.80;25.40;;;;;;5091059;28;19926;-62
2022/01/16 14:51:35;;;;;;;;;;;23.80;25.50;;;;;;5091009;28;19920;-62
2022/01/16 14:54:03;;;;;;;;;;;23.80;25.50;;;;;;5092382;28;20226;-62
2022/01/16 14:56:30;;;;;;;;;;;23.80;25.50;;;;;;5092505;28;19959;-62
2022/01/16 14:58:57;;;;;;;;;;;23.80;25.50;;;;;;5090975;28;20467;-62
2022/01/16 15:01:24;;;;;;;;;;;23.80;25.50;;;;;;5090591;28;20022;-63
2022/01/16 15:03:51;;;;;;;;;;;23.80;25.50;;;;;;5091910;28;19967;-62
2022/01/16 15:06:21;;;;;;;;;;;23.70;25.50;;;;;;5092903;28;19920;-62
2022/01/16 15:08:48;;;;;;;;;;;23.70;25.50;;;;;;5090586;28;20392;-62
2022/01/16 15:11:16;;;;;;;;;;;23.70;25.50;;;;;;5090455;28;19962;-62
2022/01/16 15:13:43;;;;;;;;;;;23.80;25.50;;;;;;5091582;28;19951;-62
2022/01/16 15:16:12;;;;;;;;;;;23.80;25.50;;;;;;5092390;28;19926;-62
2022/01/16 15:18:41;;;;;;;;;;;23.70;25.40;;;;;;5090900;28;19920;-62
2022/01/16 15:21:10;;;;;;;;;;;23.70;25.50;;;;;;5090583;28;19920;-64
2022/01/16 15:23:37;;;;;;;;;;;23.70;25.50;;;;;;5091129;28;19953;-62